Terminal Aerodrome Forecast
Issued by NWS Twin Cities, MN

Home | Current Version | Previous Version | Text Only | Print | Product List | Glossary On
Versions: 1 2 3 4 5 6 7 8 9 10 11 12
000
FTUS43 KMPX 051120
TAFEAU
TAF
KEAU 051120Z 0512/0612 06008KT P6SM SCT070
     FM051600 12012G18KT P6SM SCT060 BKN150
     FM052200 12009KT P6SM OVC040
     FM060700 11009KT P6SM OVC015=

USA.gov is the U.S. government's official web portal to all federal, state and local government web resources and services.